Time;durP1;ratioP1;P1;durP2;ratioP2;P2;SDS_P1;SDS_P2;PMS_P1;PMS_P2;Temp;Humidity;BMP_temperature;BMP_pressure;BME280_temperature;BME280_humidity;BME280_pressure;Samples;Min_cycle;Max_cycle;Signal;HPM_P1;HPM_P2
2023/07/12 00:00:45;;;;;;;3.50;1.60;;;;;;;21.73;100.00;100535.91;5001545;28;20034;-78
2023/07/12 00:03:11;;;;;;;2.25;0.73;;;;;;;21.76;100.00;100549.09;4992318;28;20046;-78
2023/07/12 00:05:37;;;;;;;5.80;1.55;;;;;;;21.06;100.00;100462.25;5010085;28;20478;-77
2023/07/12 00:08:03;;;;;;;3.03;1.42;;;;;;;21.05;100.00;100434.69;5008244;28;20046;-78
2023/07/12 00:10:35;;;;;;;4.03;1.77;;;;;;;21.70;100.00;100531.56;5008631;28;20041;-77
2023/07/12 00:13:02;;;;;;;4.55;1.65;;;;;;;21.26;100.00;100506.78;5008029;28;20033;-77
2023/07/12 00:15:30;;;;;;;1.73;1.10;;;;;;;21.20;100.00;100481.19;5008320;28;20168;-77
2023/07/12 00:17:57;;;;;;;5.85;1.95;;;;;;;21.60;100.00;100556.06;5002814;28;20509;-77
2023/07/12 00:20:34;;;;;;;2.58;1.55;;;;;;;21.70;100.00;100544.91;5009829;28;20041;-77
2023/07/12 00:23:01;;;;;;;2.03;1.13;;;;;;;21.73;100.00;100546.59;5008400;28;20739;-77
2023/07/12 00:25:32;;;;;;;2.35;1.63;;;;;;;21.37;100.00;100472.44;5001445;28;20052;-78
2023/07/12 00:27:59;;;;;;;4.50;1.45;;;;;;;21.74;100.00;100536.75;5006760;28;20041;-77
2023/07/12 00:30:30;;;;;;;3.45;1.20;;;;;;;21.44;100.00;100497.97;4991658;28;20046;-77
2023/07/12 00:33:03;;;;;;;4.93;1.00;;;;;;;21.28;100.00;100465.72;5009079;28;20112;-77
2023/07/12 00:35:30;;;;;;;4.45;1.23;;;;;;;21.24;100.00;100484.59;5005801;28;20050;-77
2023/07/12 00:37:58;;;;;;;1.85;1.05;;;;;;;21.57;100.00;100532.16;5006447;28;20053;-77
2023/07/12 00:40:51;;;;;;;2.13;1.15;;;;;;;21.72;100.00;100555.50;5009188;28;20034;-77
2023/07/12 00:43:19;;;;;;;2.72;1.55;;;;;;;21.73;100.00;100557.28;5002307;28;20469;-77
2023/07/12 00:45:48;;;;;;;3.22;1.65;;;;;;;21.16;100.00;100460.91;5000557;28;20041;-78
2023/07/12 00:48:14;;;;;;;3.83;1.42;;;;;;;21.64;100.00;100547.84;5006249;28;20394;-79
2023/07/12 00:50:41;;;;;;;1.23;0.73;;;;;;;21.68;100.00;100559.25;5009041;28;20042;-79
2023/07/12 00:53:15;;;;;;;1.85;0.95;;;;;;;21.23;100.00;100482.84;4997840;28;20429;-78
2023/07/12 00:56:10;;;;;;;3.25;1.33;;;;;;;21.02;100.00;100440.13;5008869;28;20041;-79
2023/07/12 00:58:44;;;;;;;2.63;1.45;;;;;;;21.25;100.00;100476.50;5005498;28;20046;-79
2023/07/12 01:01:11;;;;;;;2.15;1.00;;;;;;;21.59;100.00;100533.84;5007804;28;20152;-79
2023/07/12 01:03:38;;;;;;;2.10;0.93;;;;;;;21.55;100.00;100536.69;5000595;28;20030;-78
2023/07/12 01:06:08;;;;;;;3.25;1.30;;;;;;;21.46;100.00;100527.28;5006971;28;20034;-79
2023/07/12 01:08:34;;;;;;;1.70;0.95;;;;;;;21.66;100.00;100555.81;5008673;28;20054;-79
2023/07/12 01:11:02;;;;;;;4.00;1.65;;;;;;;21.25;100.00;100486.31;5005644;28;20046;-80
2023/07/12 01:13:30;;;;;;;2.63;1.20;;;;;;;21.17;100.00;100472.47;5003371;28;20062;-79
2023/07/12 01:15:58;;;;;;;2.63;1.45;;;;;;;21.58;100.00;100542.75;5005900;28;20034;-79
2023/07/12 01:18:24;;;;;;;3.40;2.00;;;;;;;21.55;100.00;100537.56;5008825;28;20437;-79
2023/07/12 01:21:23;;;;;;;2.58;1.75;;;;;;;21.61;100.00;100549.78;5006447;28;20557;-78
2023/07/12 01:23:49;;;;;;;2.60;1.92;;;;;;;20.32;100.00;100329.31;5007642;28;20045;-79
2023/07/12 01:26:14;;;;;;;2.78;1.48;;;;;;;21.60;100.00;100562.25;5008176;28;20072;-79
2023/07/12 01:28:40;;;;;;;1.70;1.05;;;;;;;21.41;100.00;100516.81;4989997;28;20486;-78
2023/07/12 01:31:06;;;;;;;2.38;1.00;;;;;;;21.57;100.00;100556.19;5008193;28;20095;-79
2023/07/12 01:33:31;;;;;;;3.90;1.90;;;;;;;20.99;100.00;100463.44;5008692;28;20042;-79
2023/07/12 01:35:57;;;;;;;2.00;1.20;;;;;;;21.52;100.00;100577.75;5001325;28;20026;-78
2023/07/12 01:38:22;;;;;;;3.05;1.75;;;;;;;21.34;100.00;100531.31;5006602;28;20042;-78
2023/07/12 01:40:48;;;;;;;3.30;1.30;;;;;;;21.10;100.00;100487.88;5003324;28;20486;-78
2023/07/12 01:43:14;;;;;;;3.85;1.65;;;;;;;21.50;100.00;100558.25;5005789;28;20084;-78
2023/07/12 01:45:39;;;;;;;9.55;2.40;;;;;;;21.63;100.00;100578.16;5008689;28;20041;-78
2023/07/12 01:48:05;;;;;;;3.35;1.75;;;;;;;21.21;100.00;100500.72;5007092;28;20078;-79
2023/07/12 01:50:31;;;;;;;5.15;2.15;;;;;;;21.48;100.00;100566.31;5008229;28;20760;-78
2023/07/12 01:52:56;;;;;;;3.90;1.95;;;;;;;21.44;100.00;100546.03;5008052;28;20049;-78
2023/07/12 01:55:22;;;;;;;3.90;2.17;;;;;;;21.70;100.00;100584.97;4999840;28;20026;-79
2023/07/12 01:57:47;;;;;;;7.13;2.38;;;;;;;21.18;100.00;100499.06;5008377;28;20037;-78
2023/07/12 02:00:13;;;;;;;3.55;1.88;;;;;;;21.73;100.00;100596.44;5008025;28;20057;-78
2023/07/12 02:02:39;;;;;;;3.10;1.38;;;;;;;21.73;100.00;100593.78;5003690;28;20061;-78
2023/07/12 02:05:06;;;;;;;2.75;1.92;;;;;;;21.75;100.00;100597.25;5007699;28;20103;-78
2023/07/12 02:07:32;;;;;;;3.13;1.30;;;;;;;21.56;100.00;100566.00;5007576;28;20049;-77
2023/07/12 02:10:16;;;;;;;3.92;2.03;;;;;;;21.73;100.00;100599.09;5007914;28;20036;-78
2023/07/12 02:12:42;;;;;;;3.25;1.77;;;;;;;21.07;100.00;100501.31;4994177;28;20513;-78
2023/07/12 02:15:09;;;;;;;2.40;1.80;;;;;;;21.74;100.00;100614.22;5002860;28;20046;-79
2023/07/12 02:17:35;;;;;;;4.13;1.63;;;;;;;21.31;100.00;100557.28;5004284;28;20501;-79
2023/07/12 02:20:00;;;;;;;3.53;1.63;;;;;;;21.66;100.00;100611.88;5007498;28;20046;-77
2023/07/12 02:22:29;;;;;;;3.53;2.08;;;;;;;21.64;100.00;100603.06;4999210;28;20456;-78
2023/07/12 02:24:55;;;;;;;2.88;1.75;;;;;;;21.16;100.00;100526.75;5013659;28;20033;-77
2023/07/12 02:27:20;;;;;;;4.00;1.73;;;;;;;21.49;100.00;100586.78;5008804;28;20119;-78
2023/07/12 02:29:46;;;;;;;3.50;1.75;;;;;;;21.48;100.00;100594.84;5011879;28;20050;-78
2023/07/12 02:32:11;;;;;;;3.85;2.13;;;;;;;21.31;100.00;100579.50;5010063;28;20085;-80
2023/07/12 02:34:37;;;;;;;4.07;2.33;;;;;;;21.59;100.00;100618.44;5015792;28;20591;-80
2023/07/12 02:37:02;;;;;;;4.78;1.88;;;;;;;21.68;100.00;100637.59;5013092;28;20045;-78
2023/07/12 02:39:28;;;;;;;3.28;1.30;;;;;;;21.10;100.00;100551.91;5010760;28;20064;-77
2023/07/12 02:41:53;;;;;;;3.63;1.48;;;;;;;21.06;100.00;100543.16;5012622;28;20214;-79
2023/07/12 02:44:21;;;;;;;5.65;3.05;;;;;;;21.48;100.00;100642.91;5003306;28;20129;-78
2023/07/12 02:46:46;;;;;;;2.30;1.35;;;;;;;21.40;100.00;100618.31;5004037;28;20065;-78
2023/07/12 02:49:12;;;;;;;3.05;2.00;;;;;;;20.98;100.00;100547.94;5006536;28;20560;-79
2023/07/12 02:51:38;;;;;;;5.20;3.00;;;;;;;21.41;100.00;100626.25;5010294;28;20405;-77
2023/07/12 02:54:04;;;;;;;7.32;2.42;;;;;;;20.85;100.00;100562.69;5007638;28;20038;-77
2023/07/12 02:56:29;;;;;;;3.67;2.45;;;;;;;21.14;100.00;100598.88;5006208;28;20557;-78
2023/07/12 02:58:55;;;;;;;4.88;2.60;;;;;;;21.31;100.00;100648.03;5006668;28;20080;-77
2023/07/12 03:01:20;;;;;;;4.82;2.47;;;;;;;21.45;100.00;100645.72;5006496;28;20490;-77
2023/07/12 03:03:46;;;;;;;3.72;2.55;;;;;;;21.53;100.00;100656.91;5008709;28;20033;-78
2023/07/12 03:06:11;;;;;;;5.75;2.95;;;;;;;21.26;100.00;100606.38;4996975;28;20030;-78
2023/07/12 03:08:37;;;;;;;5.97;2.67;;;;;;;21.20;100.00;100605.75;5008697;28;20042;-78
2023/07/12 03:11:05;;;;;;;4.15;2.55;;;;;;;19.84;100.00;100383.63;5008381;28;20117;-78
2023/07/12 03:13:31;;;;;;;6.53;3.53;;;;;;;21.25;100.00;100619.78;4999456;28;20109;-79
2023/07/12 03:15:58;;;;;;;5.10;2.65;;;;;;;20.65;100.00;100540.38;5005567;28;20030;-79
2023/07/12 03:18:24;;;;;;;4.32;2.55;;;;;;;20.42;100.00;100540.38;5006491;28;20521;-80
2023/07/12 03:20:49;;;;;;;2.83;2.03;;;;;;;20.75;100.00;100586.22;5006337;28;20037;-78
2023/07/12 03:23:16;;;;;;;3.85;2.47;;;;;;;20.81;100.00;100577.97;5005029;28;20046;-78
2023/07/12 03:25:47;;;;;;;4.57;2.42;;;;;;;20.54;100.00;100544.38;5009710;28;20831;-79
2023/07/12 03:28:13;;;;;;;6.75;2.38;;;;;;;20.65;100.00;100579.50;5009932;28;20462;-78
2023/07/12 03:30:38;;;;;;;5.03;2.78;;;;;;;21.23;100.00;100683.03;5011569;28;20030;-78
2023/07/12 03:33:04;;;;;;;4.50;2.95;;;;;;;20.86;100.00;100612.44;5010852;28;20397;-77
2023/07/12 03:35:29;;;;;;;5.05;2.92;;;;;;;20.80;100.00;100613.56;5010183;28;20045;-77
2023/07/12 03:37:55;;;;;;;4.47;2.97;;;;;;;20.83;100.00;100623.25;5007792;28;20077;-76
2023/07/12 03:40:20;;;;;;;4.00;2.55;;;;;;;21.32;100.00;100693.34;5009346;28;20072;-78
2023/07/12 03:42:47;;;;;;;2.67;1.58;;;;;;;20.72;100.00;100628.13;5010111;28;20758;-78
2023/07/12 03:45:12;;;;;;;6.63;3.67;;;;;;;21.28;100.00;100700.63;5010369;28;20456;-79
2023/07/12 03:47:38;;;;;;;13.43;2.88;;;;;;;20.85;100.00;100630.25;5013103;28;20054;-79
2023/07/12 03:50:04;;;;;;;6.95;2.85;;;;;;;21.22;100.00;100702.66;4993829;28;20421;-78
2023/07/12 03:52:29;;;;;;;5.82;2.30;;;;;;;21.18;100.00;100693.88;5009961;28;20046;-78
2023/07/12 03:54:54;;;;;;;5.35;3.13;;;;;;;21.22;100.00;100722.19;5011615;28;20111;-78
2023/07/12 03:57:20;;;;;;;6.30;3.58;;;;;;;20.83;100.00;100669.44;5005671;28;20050;-78
2023/07/12 03:59:45;;;;;;;3.75;2.88;;;;;;;21.00;100.00;100692.84;5009741;28;20059;-79
2023/07/12 04:02:11;;;;;;;4.85;2.13;;;;;;;20.96;100.00;100722.34;5009945;28;20551;-79
2023/07/12 04:04:36;;;;;;;7.55;3.53;;;;;;;21.20;100.00;100712.53;5008956;28;20046;-79
2023/07/12 04:07:02;;;;;;;4.70;2.58;;;;;;;20.95;100.00;100688.59;5011048;28;20484;-78
2023/07/12 04:09:28;;;;;;;4.90;2.45;;;;;;;20.57;100.00;100624.25;5007218;28;20061;-78
2023/07/12 04:11:54;;;;;;;6.03;3.20;;;;;;;20.94;100.00;100666.38;5004108;28;20049;-78
2023/07/12 04:14:19;;;;;;;6.30;2.60;;;;;;;21.22;100.00;100732.88;5009568;28;20494;-78
2023/07/12 04:16:47;;;;;;;4.60;2.50;;;;;;;20.79;100.00;100637.63;5011657;28;20133;-78
2023/07/12 04:19:12;;;;;;;6.15;2.35;;;;;;;20.69;100.00;100629.09;5012777;28;20041;-78
2023/07/12 04:21:38;;;;;;;6.57;3.72;;;;;;;21.37;100.00;100728.72;5006895;28;20046;-79
2023/07/12 04:24:04;;;;;;;7.10;3.33;;;;;;;21.38;100.00;100727.81;5004116;28;20336;-78
2023/07/12 04:26:30;;;;;;;4.53;2.65;;;;;;;20.87;100.00;100664.88;5008260;28;20248;-78
2023/07/12 04:28:55;;;;;;;6.00;2.30;;;;;;;21.49;100.00;100738.97;5009332;28;20133;-79
2023/07/12 04:31:21;;;;;;;8.15;3.22;;;;;;;20.99;100.00;100648.38;5009097;28;20014;-77
2023/07/12 04:33:48;;;;;;;6.78;3.95;;;;;;;20.91;100.00;100645.16;5009738;28;20053;-78
2023/07/12 04:36:16;;;;;;;5.65;3.10;;;;;;;21.26;100.00;100738.97;5007235;28;20041;-77
2023/07/12 04:38:42;;;;;;;5.68;3.53;;;;;;;21.44;100.00;100734.72;5004982;28;20046;-77
2023/07/12 04:41:08;;;;;;;12.65;4.28;;;;;;;21.55;100.00;100742.31;5012627;28;20187;-77
2023/07/12 04:43:33;;;;;;;4.82;2.78;;;;;;;20.93;100.00;100651.31;5006358;28;20088;-78
2023/07/12 04:46:00;;;;;;;10.00;3.42;;;;;;;21.20;100.00;100732.06;5011067;28;20068;-77
2023/07/12 04:48:26;;;;;;;8.45;4.80;;;;;;;21.01;100.00;100675.88;5008305;28;20046;-79
2023/07/12 04:50:54;;;;;;;3.05;2.25;;;;;;;20.98;100.00;100691.16;4993311;28;20053;-79
2023/07/12 04:53:21;;;;;;;8.02;3.80;;;;;;;21.58;100.00;100764.41;5008101;28;20037;-78
2023/07/12 04:55:47;;;;;;;5.53;3.25;;;;;;;21.42;100.00;100726.81;5008569;28;20050;-79
2023/07/12 04:58:13;;;;;;;8.90;3.38;;;;;;;21.65;100.00;100727.66;5009302;28;20461;-78
2023/07/12 05:00:40;;;;;;;6.07;2.80;;;;;;;21.86;100.00;100745.47;5009554;28;20038;-78
2023/07/12 05:03:05;;;;;;;5.43;3.25;;;;;;;21.39;100.00;100672.59;4995263;28;20062;-78
2023/07/12 05:05:31;;;;;;;5.85;2.85;;;;;;;21.29;100.00;100693.47;4983267;28;20053;-78
2023/07/12 05:07:56;;;;;;;6.78;4.18;;;;;;;22.12;100.00;100787.16;4997633;28;20462;-78
2023/07/12 05:10:22;;;;;;;6.72;3.75;;;;;;;22.33;100.00;100776.50;5001344;28;20037;-77
2023/07/12 05:12:47;;;;;;;3.60;2.00;;;;;;;22.08;100.00;100677.75;5003850;28;20033;-81
2023/07/12 05:15:13;;;;;;;6.32;2.08;;;;;;;22.71;100.00;100771.25;4998846;28;20072;-83
2023/07/12 05:17:39;;;;;;;4.93;2.47;;;;;;;23.23;100.00;100782.31;5000015;28;20049;-83
2023/07/12 05:20:08;;;;;;;3.33;1.85;;;;;;;23.53;100.00;100755.88;4985695;28;20100;-81
2023/07/12 05:22:34;;;;;;;15.48;3.28;;;;;;;23.01;100.00;100683.38;4988276;28;20038;-82
2023/07/12 05:24:59;;;;;;;5.15;2.85;;;;;;;23.28;100.00;100780.28;5008104;28;20116;-82
2023/07/12 05:27:25;;;;;;;6.00;3.05;;;;;;;23.48;100.00;100795.38;5007133;28;20148;-83
2023/07/12 05:29:51;;;;;;;6.40;3.25;;;;;;;23.35;100.00;100748.72;5007791;28;20524;-82
2023/07/12 05:32:17;;;;;;;6.72;2.85;;;;;;;23.67;100.00;100709.66;5007099;28;20133;-81
2023/07/12 05:34:42;;;;;;;9.32;4.25;;;;;;;23.65;100.00;100654.38;4985396;28;20465;-81
2023/07/12 05:37:09;;;;;;;8.85;3.55;;;;;;;24.62;100.00;100699.41;5007971;28;20030;-82
2023/07/12 05:39:35;;;;;;;6.43;4.10;;;;;;;25.19;100.00;100793.03;5008492;28;20096;-82
2023/07/12 05:42:01;;;;;;;8.40;3.05;;;;;;;24.34;100.00;100685.72;5005925;28;20049;-81
2023/07/12 05:44:26;;;;;;;6.30;3.13;;;;;;;25.49;100.00;100766.25;5011044;28;20049;-80
2023/07/12 05:46:51;;;;;;;10.80;3.50;;;;;;;24.25;100.00;100509.19;5006088;28;20050;-80
2023/07/12 05:49:17;;;;;;;3.30;2.03;;;;;;;25.68;100.00;100668.44;5000497;28;20784;-81
2023/07/12 05:51:43;;;;;;;6.15;2.95;;;;;;;25.88;100.00;100668.16;5009174;28;20077;-81
2023/07/12 05:54:08;;;;;;;6.80;3.67;;;;;;;25.51;100.00;100733.91;4999040;28;20050;-80
2023/07/12 05:56:34;;;;;;;6.05;3.78;;;;;;;26.04;100.00;100692.31;5009051;28;20073;-81
2023/07/12 05:58:59;;;;;;;4.90;3.15;;;;;;;26.53;100.00;100726.13;5007933;28;20479;-80
2023/07/12 06:01:26;;;;;;;5.97;3.53;;;;;;;26.32;100.00;100712.16;5005130;28;20053;-82
2023/07/12 06:03:53;;;;;;;5.97;3.33;;;;;;;26.76;100.00;100748.94;5008002;28;20484;-81
2023/07/12 06:06:19;;;;;;;6.35;2.92;;;;;;;27.24;100.00;100754.06;5007951;28;20077;-80
2023/07/12 06:08:45;;;;;;;5.00;3.42;;;;;;;26.66;100.00;100658.94;5007152;28;20045;-80
2023/07/12 06:11:10;;;;;;;8.27;4.65;;;;;;;26.24;100.00;100688.38;5006946;28;20034;-80
2023/07/12 06:13:36;;;;;;;7.82;4.18;;;;;;;27.20;100.00;100752.50;5000791;28;20505;-80
2023/07/12 06:16:02;;;;;;;6.50;3.30;;;;;;;27.14;100.00;100751.91;5013192;28;20033;-82
2023/07/12 06:18:30;;;;;;;4.22;2.53;;;;;;;27.00;100.00;100740.28;5011543;28;20045;-82
2023/07/12 06:20:58;;;;;;;7.32;3.00;;;;;;;27.29;100.00;100746.53;5007129;28;20065;-81
2023/07/12 06:23:25;;;;;;;5.78;3.10;;;;;;;26.66;100.00;100707.41;5004191;28;20046;-81
2023/07/12 06:25:51;;;;;;;5.95;3.40;;;;;;;26.01;100.00;100665.59;5007410;28;20038;-81
2023/07/12 06:28:16;;;;;;;4.78;3.10;;;;;;;25.98;100.00;100750.97;5006980;28;20038;-81
2023/07/12 06:30:42;;;;;;;5.30;3.10;;;;;;;26.28;100.00;100759.03;5004376;28;20033;-80
2023/07/12 06:33:07;;;;;;;5.45;3.90;;;;;;;26.82;100.00;100745.88;4989382;28;20026;-82
2023/07/12 06:35:33;;;;;;;4.45;3.45;;;;;;;27.07;100.00;100738.94;5007207;28;20114;-81
2023/07/12 06:37:58;;;;;;;6.68;3.78;;;;;;;26.67;100.00;100747.69;5007321;28;20041;-82
2023/07/12 06:40:24;;;;;;;5.47;4.03;;;;;;;26.22;100.00;100711.84;5006698;28;20046;-81
2023/07/12 06:42:49;;;;;;;5.20;3.72;;;;;;;26.43;100.00;100674.66;5004057;28;20382;-81
2023/07/12 06:45:15;;;;;;;5.43;3.70;;;;;;;26.95;100.00;100701.03;5003534;28;20030;-81
2023/07/12 06:47:40;;;;;;;5.97;3.08;;;;;;;26.44;100.00;100654.88;5013645;28;20045;-82
2023/07/12 06:50:08;;;;;;;6.18;4.00;;;;;;;27.35;100.00;100741.59;5006787;28;20185;-81
2023/07/12 06:52:33;;;;;;;11.18;3.90;;;;;;;26.72;100.00;100666.63;5004701;28;20058;-81
2023/07/12 06:54:59;;;;;;;5.68;4.60;;;;;;;26.63;100.00;100669.91;5009181;28;20030;-81
2023/07/12 06:57:25;;;;;;;3.78;2.47;;;;;;;27.20;100.00;100753.38;5007799;28;20061;-82
2023/07/12 06:59:50;;;;;;;5.95;3.78;;;;;;;27.32;100.00;100739.13;5002186;28;20053;-80
2023/07/12 07:02:15;;;;;;;9.18;5.18;;;;;;;27.40;100.00;100744.00;5008878;28;20053;-80
2023/07/12 07:04:41;;;;;;;6.18;5.03;;;;;;;26.90;100.00;100708.56;5012832;28;20053;-81
2023/07/12 07:07:07;;;;;;;6.20;3.22;;;;;;;25.59;100.00;100658.22;5006772;28;20037;-80
2023/07/12 07:09:38;;;;;;;9.75;4.63;;;;;;;26.60;100.00;100684.44;4989816;28;20793;-81
2023/07/12 07:12:07;;;;;;;5.82;4.05;;;;;;;26.16;100.00;100677.25;4994028;28;20121;-81
2023/07/12 07:14:33;;;;;;;7.20;3.55;;;;;;;27.02;100.00;100754.50;4981177;28;20046;-81
2023/07/12 07:16:59;;;;;;;7.43;4.00;;;;;;;26.67;100.00;100675.00;5006288;28;20521;-81
2023/07/12 07:19:24;;;;;;;7.80;3.38;;;;;;;26.22;100.00;100759.38;5006562;28;20061;-81
2023/07/12 07:21:50;;;;;;;5.88;3.88;;;;;;;26.74;100.00;100758.94;5004770;28;20029;-82
2023/07/12 07:24:17;;;;;;;6.03;4.05;;;;;;;26.82;100.00;100763.84;5006566;28;20532;-82
2023/07/12 07:26:43;;;;;;;6.13;4.55;;;;;;;26.66;100.00;100692.09;5002134;28;20061;-81
2023/07/12 07:29:09;;;;;;;6.05;3.90;;;;;;;26.50;100.00;100707.44;4999236;28;20148;-82
2023/07/12 07:31:34;;;;;;;5.82;3.85;;;;;;;27.12;100.00;100755.66;5006900;28;20129;-82
2023/07/12 07:34:00;;;;;;;6.68;4.45;;;;;;;26.99;100.00;100690.91;4989194;28;20034;-81
2023/07/12 07:36:25;;;;;;;5.93;3.17;;;;;;;26.60;100.00;100684.44;5002364;28;20121;-82
2023/07/12 07:38:51;;;;;;;8.75;3.92;;;;;;;26.87;100.00;100753.66;5004735;28;20045;-82
2023/07/12 07:41:16;;;;;;;6.35;3.65;;;;;;;26.22;100.00;100697.50;5000282;28;20096;-79
2023/07/12 07:43:44;;;;;;;13.15;4.88;;;;;;;26.14;100.00;100751.78;5003259;28;20050;-81
2023/07/12 07:46:10;;;;;;;5.72;4.13;;;;;;;26.46;100.00;100676.31;5002235;28;20044;-81
2023/07/12 07:48:36;;;;;;;4.00;2.83;;;;;;;26.83;100.00;100664.13;4988552;28;20113;-79
2023/07/12 07:51:02;;;;;;;5.10;4.20;;;;;;;27.04;100.00;100771.44;5005787;28;20050;-78
2023/07/12 07:53:27;;;;;;;7.85;3.10;;;;;;;27.04;100.00;100742.69;5001920;28;20062;-77
2023/07/12 07:55:53;;;;;;;4.70;3.15;;;;;;;27.75;100.00;100752.47;4998862;28;20061;-78
2023/07/12 07:58:20;;;;;;;6.95;4.30;;;;;;;27.48;100.00;100763.22;4992573;28;20476;-79
2023/07/12 08:00:45;;;;;;;4.78;3.63;;;;;;;27.20;98.95;100763.28;4999771;28;20034;-79
2023/07/12 08:03:11;;;;;;;5.03;3.53;;;;;;;27.73;100.00;100757.09;5002390;28;20522;-79
2023/07/12 08:05:37;;;;;;;5.82;4.20;;;;;;;27.59;93.20;100762.53;5008333;28;20046;-82
2023/07/12 08:08:03;;;;;;;7.78;4.13;;;;;;;27.29;100.00;100680.00;4988176;28;20061;-80
2023/07/12 08:10:29;;;;;;;4.95;3.10;;;;;;;28.28;93.41;100765.16;5009389;28;20098;-81
2023/07/12 08:12:56;;;;;;;5.78;3.70;;;;;;;28.31;93.72;100770.38;5009217;28;20034;-81
2023/07/12 08:15:23;;;;;;;5.25;3.33;;;;;;;27.34;97.61;100736.31;5005736;28;20202;-80
2023/07/12 08:17:49;;;;;;;7.50;5.43;;;;;;;27.46;96.41;100757.06;5013328;28;20047;-80
2023/07/12 08:20:14;;;;;;;6.43;4.18;;;;;;;28.09;95.55;100761.00;5012055;28;20054;-80
2023/07/12 08:22:40;;;;;;;5.55;4.03;;;;;;;28.75;97.69;100744.78;5008419;28;20045;-80
2023/07/12 08:25:07;;;;;;;8.38;4.05;;;;;;;27.51;92.69;100670.50;5008733;28;20398;-80
2023/07/12 08:27:32;;;;;;;6.57;4.78;;;;;;;28.00;95.08;100740.03;5009521;28;20068;-81
2023/07/12 08:29:59;;;;;;;8.93;4.03;;;;;;;28.82;95.42;100741.56;5008815;28;20046;-80
2023/07/12 08:32:27;;;;;;;4.90;3.05;;;;;;;27.52;87.35;100674.94;5001321;28;20058;-80
2023/07/12 08:34:54;;;;;;;8.00;3.80;;;;;;;28.10;89.91;100748.41;5008690;28;20125;-81
2023/07/12 08:37:19;;;;;;;5.40;3.58;;;;;;;28.89;88.45;100733.00;5009272;28;20034;-81
2023/07/12 08:39:45;;;;;;;6.18;3.60;;;;;;;29.01;83.74;100672.69;5009859;28;20089;-79
2023/07/12 08:42:18;;;;;;;7.07;3.90;;;;;;;29.23;81.31;100656.63;5002434;28;20470;-79
2023/07/12 08:44:44;;;;;;;4.95;3.47;;;;;;;27.85;85.63;100615.19;4994847;28;20054;-80
2023/07/12 08:47:23;;;;;;;6.55;3.72;;;;;;;29.37;84.98;100722.34;5010965;28;20038;-80
2023/07/12 08:49:50;;;;;;;6.10;4.35;;;;;;;28.80;86.78;100738.13;5005036;28;20124;-79
2023/07/12 08:52:24;;;;;;;7.75;4.82;;;;;;;29.92;81.23;100677.63;5008906;28;20473;-80
2023/07/12 08:54:51;;;;;;;7.05;2.97;;;;;;;29.59;80.70;100665.66;5004472;28;20069;-80
2023/07/12 08:57:18;;;;;;;6.22;3.60;;;;;;;29.75;74.12;100733.03;5012505;28;20052;-80
2023/07/12 08:59:57;;;;;;;4.45;2.80;;;;;;;30.12;71.85;100650.88;5003849;28;20042;-80
2023/07/12 09:02:24;;;;;;;7.15;2.80;;;;;;;29.88;67.40;100738.38;5010062;28;20053;-80
2023/07/12 09:04:51;;;;;;;4.95;3.45;;;;;;;29.12;75.74;100747.59;5011085;28;20490;-80
2023/07/12 09:07:31;;;;;;;5.30;3.65;;;;;;;29.22;68.87;100760.34;5011198;28;20037;-80
2023/07/12 09:09:59;;;;;;;4.72;3.35;;;;;;;30.04;68.46;100729.94;4988141;28;20034;-79
2023/07/12 09:12:34;;;;;;;7.95;3.97;;;;;;;30.19;69.30;100671.06;5005798;28;20180;-79
2023/07/12 09:15:03;;;;;;;6.78;3.78;;;;;;;31.02;67.66;100702.41;5004976;28;20417;-79
2023/07/12 09:17:35;;;;;;;6.30;3.55;;;;;;;31.59;64.72;100722.19;5003982;28;20046;-80
2023/07/12 09:20:01;;;;;;;7.38;3.83;;;;;;;29.59;65.07;100725.16;4996470;28;20509;-80
2023/07/12 09:22:29;;;;;;;6.10;4.47;;;;;;;30.89;67.67;100651.94;5003781;28;20131;-78
2023/07/12 09:24:56;;;;;;;5.30;4.22;;;;;;;30.50;67.02;100705.56;5008877;28;20026;-78
2023/07/12 09:27:27;;;;;;;3.83;2.83;;;;;;;30.57;62.59;100618.44;5000594;28;20088;-80
2023/07/12 09:30:04;;;;;;;12.10;3.90;;;;;;;31.34;61.77;100648.25;5009181;28;20064;-79
2023/07/12 09:32:35;;;;;;;4.72;3.30;;;;;;;31.62;58.87;100641.38;4994901;28;20054;-78
2023/07/12 09:35:02;;;;;;;6.88;3.65;;;;;;;31.71;64.35;100710.31;4993670;28;20077;-81
2023/07/12 09:37:36;;;;;;;4.60;2.83;;;;;;;32.19;59.14;100644.66;5007424;28;20053;-79
2023/07/12 09:40:04;;;;;;;5.50;3.13;;;;;;;31.57;59.52;100684.31;5004733;28;20037;-80
2023/07/12 09:42:31;;;;;;;3.38;2.08;;;;;;;30.14;63.79;100659.72;5005366;28;20234;-78
2023/07/12 09:44:58;;;;;;;3.88;2.78;;;;;;;31.08;61.93;100634.16;4999627;28;20045;-79
2023/07/12 09:47:42;;;;;;;4.65;3.45;;;;;;;32.49;58.77;100716.31;5006497;28;20037;-79
2023/07/12 09:50:37;;;;;;;5.10;3.33;;;;;;;30.92;56.62;100686.03;5001012;28;20058;-83
2023/07/12 09:53:29;;;;;;;5.80;3.25;;;;;;;31.53;57.61;100637.59;4998648;28;20569;-79
2023/07/12 09:56:06;;;;;;;4.13;3.03;;;;;;;31.07;57.05;100633.28;4990486;28;20164;-79
2023/07/12 09:59:07;;;;;;;3.78;2.85;;;;;;;32.23;56.29;100681.41;5009569;28;20038;-80
2023/07/12 10:02:13;;;;;;;2.70;2.08;;;;;;;33.34;54.45;100647.97;4995484;28;20189;-80
2023/07/12 10:05:01;;;;;;;7.30;3.67;;;;;;;33.58;52.40;100660.34;4994405;28;20456;-77
2023/07/12 10:07:56;;;;;;;6.32;3.28;;;;;;;33.77;48.98;100648.59;4997994;28;20077;-75
2023/07/12 10:10:43;;;;;;;4.07;3.15;;;;;;;33.94;50.14;100666.03;4998445;28;20053;-79
2023/07/12 10:13:25;;;;;;;6.18;4.05;;;;;;;34.15;48.71;100650.41;4996141;28;20134;-76
2023/07/12 10:15:50;;;;;;;7.88;2.85;;;;;;;34.56;47.75;100650.13;5000751;28;20148;-76
2023/07/12 10:18:19;;;;;;;3.47;2.60;;;;;;;34.10;48.48;100586.50;5006753;28;20141;-77
2023/07/12 10:20:47;;;;;;;7.75;4.18;;;;;;;34.60;47.24;100636.06;4988417;28;20078;-86
2023/07/12 10:23:14;;;;;;;3.72;2.25;;;;;;;34.50;48.12;100618.88;4986995;28;20080;-80
2023/07/12 10:25:46;;;;;;;4.35;3.10;;;;;;;32.69;48.44;100652.09;5005904;28;20050;-79
2023/07/12 10:28:11;;;;;;;4.83;3.40;;;;;;;31.51;51.04;100655.84;4997588;28;20061;-79
2023/07/12 10:30:39;;;;;;;4.78;2.58;;;;;;;31.79;53.48;100534.09;5013802;28;20053;-80
2023/07/12 10:33:33;;;;;;;5.03;3.13;;;;;;;32.08;51.98;100579.59;5004044;28;20045;-78
2023/07/12 10:36:07;;;;;;;5.35;3.38;;;;;;;31.40;53.73;100603.47;4998736;28;20128;-79
2023/07/12 10:38:33;;;;;;;3.20;2.13;;;;;;;31.93;50.29;100579.88;5002726;28;20033;-79
2023/07/12 10:41:05;;;;;;;5.47;3.65;;;;;;;32.87;50.22;100628.66;5006307;28;20065;-80
2023/07/12 10:43:38;;;;;;;7.43;3.95;;;;;;;33.90;49.14;100621.03;4996485;28;20060;-79
2023/07/12 10:46:18;;;;;;;4.63;3.53;;;;;;;33.67;48.00;100506.16;5011736;28;20124;-80
2023/07/12 10:48:50;;;;;;;3.72;2.80;;;;;;;31.92;48.61;100612.59;5009485;28;20145;-81
2023/07/12 10:51:33;;;;;;;;;;;;;;;33.60;49.05;100631.97;5008980;28;20363;-82
2023/07/12 10:53:59;;;;;;;11.13;4.68;;;;;;;33.68;46.98;100627.66;5006302;28;19935;-79
2023/07/12 10:56:50;;;;;;;5.93;3.55;;;;;;;32.59;48.00;100639.31;5000333;28;20058;-81
2023/07/12 10:59:30;;;;;;;9.50;3.45;;;;;;;33.88;47.25;100625.75;5005341;28;20156;-80
2023/07/12 11:02:08;;;;;;;10.32;4.60;;;;;;;33.66;48.48;100600.59;5007593;28;20128;-82
2023/07/12 11:04:44;;;;;;;7.32;3.72;;;;;;;34.08;47.37;100559.34;5009433;28;20120;-81
2023/07/12 11:07:15;;;;;;;6.85;3.10;;;;;;;34.11;45.68;100621.72;5008737;28;20562;-83
2023/07/12 11:09:44;;;;;;;8.63;3.78;;;;;;;34.78;46.47;100606.13;5004440;28;20041;-81
2023/07/12 11:12:15;;;;;;;9.48;3.58;;;;;;;34.73;45.27;100613.91;4999352;28;20877;-83
2023/07/12 11:14:41;;;;;;;3.95;3.15;;;;;;;33.42;48.50;100615.47;4990201;28;20096;-79
2023/07/12 11:17:06;;;;;;;4.30;2.50;;;;;;;33.75;46.48;100618.78;4999685;28;20061;-80
2023/07/12 11:19:42;;;;;;;6.60;3.80;;;;;;;34.64;45.90;100623.84;5005270;28;20046;-81
2023/07/12 11:22:12;;;;;;;6.10;3.38;;;;;;;33.62;45.88;100561.94;5001832;28;20022;-81
2023/07/12 11:25:01;;;;;;;4.22;2.92;;;;;;;34.33;46.58;100611.50;4993374;28;20084;-81